createdAt,value
2019-06-20T00:00:39.438Z,16.00
2019-06-20T00:03:07.861Z,16.00
2019-06-20T00:05:36.276Z,16.00
2019-06-20T00:08:04.992Z,15.90
2019-06-20T00:10:33.752Z,16.00
2019-06-20T00:13:02.176Z,15.90
2019-06-20T00:15:30.623Z,15.80
2019-06-20T00:17:59.051Z,15.80
2019-06-20T00:20:27.465Z,15.90
2019-06-20T00:22:55.904Z,15.90
2019-06-20T00:25:24.312Z,15.90
2019-06-20T00:27:52.736Z,15.90
2019-06-20T00:30:21.176Z,15.90
2019-06-20T00:32:49.604Z,15.80
2019-06-20T00:35:18.082Z,15.70
2019-06-20T00:37:46.498Z,15.70
2019-06-20T00:40:14.918Z,15.70
2019-06-20T00:42:43.731Z,15.60
2019-06-20T00:45:12.176Z,15.60
2019-06-20T00:47:40.604Z,15.60
2019-06-20T00:50:09.037Z,15.70
2019-06-20T00:52:37.481Z,15.70
2019-06-20T00:55:07.190Z,15.70
2019-06-20T00:57:35.678Z,15.60
2019-06-20T01:00:06.847Z,15.60
2019-06-20T01:02:35.296Z,15.50
2019-06-20T01:05:04.654Z,15.50
2019-06-20T01:07:33.228Z,15.50
2019-06-20T01:10:01.676Z,15.60
2019-06-20T01:12:30.146Z,15.50
2019-06-20T01:14:58.603Z,15.50
2019-06-20T01:17:27.039Z,15.50
2019-06-20T01:19:58.204Z,15.60
2019-06-20T01:22:25.566Z,15.50
2019-06-20T01:24:53.984Z,15.50
2019-06-20T01:27:22.422Z,15.50
2019-06-20T01:29:50.862Z,15.60
2019-06-20T01:32:19.678Z,15.60
2019-06-20T01:34:48.089Z,15.60
2019-06-20T01:37:16.520Z,15.70
2019-06-20T01:39:44.942Z,15.70
2019-06-20T01:42:13.393Z,15.70
2019-06-20T01:44:41.865Z,15.80
2019-06-20T01:47:10.287Z,15.70
2019-06-20T01:49:38.694Z,15.70
2019-06-20T01:52:07.148Z,15.70
2019-06-20T01:54:35.555Z,15.80
2019-06-20T01:57:03.979Z,15.70
2019-06-20T01:59:32.440Z,15.70
2019-06-20T02:02:00.966Z,15.70
2019-06-20T02:04:29.384Z,15.80
2019-06-20T02:06:57.823Z,15.80
2019-06-20T02:09:26.232Z,15.80
2019-06-20T02:11:54.668Z,15.80
2019-06-20T02:14:23.144Z,15.90
2019-06-20T02:16:51.507Z,15.80
2019-06-20T02:19:19.936Z,15.90
2019-06-20T02:21:48.380Z,15.80
2019-06-20T02:24:16.822Z,15.70
2019-06-20T02:26:45.236Z,15.60
2019-06-20T02:29:13.691Z,15.60
2019-06-20T02:31:42.105Z,15.70
2019-06-20T02:34:10.528Z,15.70
2019-06-20T02:36:39.236Z,15.70
2019-06-20T02:39:08.211Z,15.80
2019-06-20T02:41:36.742Z,15.80
2019-06-20T02:44:05.449Z,15.80
2019-06-20T02:46:33.864Z,15.70
2019-06-20T02:49:02.277Z,15.60
2019-06-20T02:51:30.723Z,15.50
2019-06-20T02:53:59.140Z,15.60
2019-06-20T02:56:27.581Z,15.60
2019-06-20T02:58:56.415Z,15.50
2019-06-20T03:01:26.083Z,15.50
2019-06-20T03:03:54.486Z,15.40
2019-06-20T03:06:22.934Z,15.30
2019-06-20T03:08:51.379Z,15.20
2019-06-20T03:11:19.793Z,15.20
2019-06-20T03:13:48.231Z,15.30
2019-06-20T03:16:16.646Z,15.20
2019-06-20T03:18:45.443Z,15.20
2019-06-20T03:21:13.896Z,15.10
2019-06-20T03:23:42.328Z,15.20
2019-06-20T03:26:10.739Z,15.30
2019-06-20T03:28:39.203Z,15.20
2019-06-20T03:31:07.620Z,15.20
2019-06-20T03:33:36.036Z,15.20
2019-06-20T03:36:04.505Z,15.10
2019-06-20T03:38:32.919Z,15.20
2019-06-20T03:41:01.351Z,15.10
2019-06-20T03:43:29.799Z,15.10
2019-06-20T03:45:58.244Z,15.10
2019-06-20T03:48:26.647Z,15.20
2019-06-20T03:50:55.094Z,15.20
2019-06-20T03:53:23.531Z,15.20
2019-06-20T03:55:51.951Z,15.20
2019-06-20T03:58:20.475Z,15.20
2019-06-20T04:00:48.893Z,15.10
2019-06-20T04:03:17.303Z,15.20
2019-06-20T04:05:45.792Z,15.20
2019-06-20T04:08:14.216Z,15.30
2019-06-20T04:10:42.639Z,15.30
2019-06-20T04:13:11.082Z,15.40
2019-06-20T04:15:39.492Z,15.40
2019-06-20T04:18:07.917Z,15.50
2019-06-20T04:20:36.365Z,15.50
2019-06-20T04:23:04.782Z,15.60
2019-06-20T04:25:33.192Z,15.60
2019-06-20T04:28:01.633Z,15.60
2019-06-20T04:30:30.067Z,15.60
2019-06-20T04:32:58.487Z,15.60
2019-06-20T04:35:26.936Z,15.60
2019-06-20T04:37:55.355Z,15.70
2019-06-20T04:40:23.777Z,15.50
2019-06-20T04:42:52.219Z,15.40
2019-06-20T04:45:34.492Z,15.30
2019-06-20T04:47:52.352Z,15.30
2019-06-20T04:50:20.795Z,15.30
2019-06-20T04:52:49.219Z,15.40
2019-06-20T04:55:17.642Z,15.50
2019-06-20T04:57:46.106Z,16.10
2019-06-20T05:00:14.536Z,16.30
2019-06-20T05:02:42.948Z,16.30
2019-06-20T05:05:11.383Z,16.30
2019-06-20T05:07:39.806Z,16.40
2019-06-20T05:10:08.223Z,16.50
2019-06-20T05:12:36.671Z,16.50
2019-06-20T05:15:06.132Z,16.50
2019-06-20T05:17:34.550Z,16.80
2019-06-20T05:20:03.393Z,19.00
2019-06-20T05:22:31.782Z,19.20
2019-06-20T05:25:00.204Z,20.90
2019-06-20T05:27:28.640Z,20.60
2019-06-20T05:29:57.057Z,21.10
2019-06-20T05:32:25.552Z,20.50
2019-06-20T05:34:53.922Z,20.60
2019-06-20T05:37:22.327Z,20.30
2019-06-20T05:39:50.749Z,19.70
2019-06-20T05:42:19.203Z,19.30
2019-06-20T05:44:47.630Z,19.10
2019-06-20T05:47:16.061Z,19.30
2019-06-20T05:49:44.488Z,19.30
2019-06-20T05:52:12.915Z,19.10
2019-06-20T05:54:41.331Z,19.00
2019-06-20T05:57:09.773Z,19.30
2019-06-20T05:59:38.195Z,19.50
2019-06-20T06:02:06.871Z,19.80
2019-06-20T06:04:35.365Z,19.60
2019-06-20T06:07:03.779Z,19.20
2019-06-20T06:09:32.200Z,18.90
2019-06-20T06:12:00.644Z,18.60
2019-06-20T06:14:29.066Z,18.40
2019-06-20T06:16:57.476Z,18.40
2019-06-20T06:19:25.931Z,18.50
2019-06-20T06:21:54.377Z,18.80
2019-06-20T06:24:22.808Z,18.90
2019-06-20T06:26:51.248Z,19.00
2019-06-20T06:29:19.687Z,18.70
2019-06-20T06:31:48.170Z,18.50
2019-06-20T06:34:16.606Z,18.70
2019-06-20T06:36:45.053Z,19.10
2019-06-20T06:39:13.831Z,19.30
2019-06-20T06:41:42.233Z,19.60
2019-06-20T06:44:10.646Z,19.70
2019-06-20T06:46:45.843Z,19.90
2019-06-20T06:49:09.155Z,20.10
2019-06-20T06:51:38.341Z,20.20
2019-06-20T06:54:06.922Z,20.30
2019-06-20T06:56:35.382Z,20.30
2019-06-20T06:59:03.863Z,20.40
2019-06-20T07:01:32.281Z,20.40
2019-06-20T07:04:00.737Z,20.60
2019-06-20T07:06:29.207Z,20.70
2019-06-20T07:08:57.687Z,20.80
2019-06-20T07:11:26.203Z,20.90
2019-06-20T07:13:54.631Z,20.90
2019-06-20T07:16:23.048Z,21.10
2019-06-20T07:18:52.864Z,21.30
2019-06-20T07:21:21.411Z,21.50
2019-06-20T07:23:49.827Z,21.50
2019-06-20T07:26:18.307Z,21.60
2019-06-20T07:28:46.727Z,21.80
2019-06-20T07:31:15.163Z,21.80
2019-06-20T07:33:43.623Z,21.80
2019-06-20T07:36:12.053Z,21.90
2019-06-20T07:38:40.476Z,22.10
2019-06-20T07:41:08.930Z,22.10
2019-06-20T07:43:37.360Z,22.10
2019-06-20T07:46:05.775Z,22.10
2019-06-20T07:48:34.239Z,22.20
2019-06-20T07:51:02.651Z,22.30
2019-06-20T07:53:31.150Z,22.40
2019-06-20T07:55:59.634Z,22.50
2019-06-20T07:58:28.053Z,22.60
2019-06-20T08:00:56.495Z,22.80
2019-06-20T08:03:24.943Z,23.00
2019-06-20T08:05:53.357Z,23.00
2019-06-20T08:08:21.784Z,23.20
2019-06-20T08:10:50.400Z,23.50
2019-06-20T08:13:18.820Z,23.60
2019-06-20T08:15:47.391Z,23.80
2019-06-20T08:18:15.931Z,23.80
2019-06-20T08:20:44.343Z,23.70
2019-06-20T08:23:12.767Z,23.70
2019-06-20T08:25:41.209Z,23.80
2019-06-20T08:28:09.627Z,23.90
2019-06-20T08:30:39.634Z,23.80
2019-06-20T08:33:11.916Z,23.90
2019-06-20T08:35:38.444Z,24.10
2019-06-20T08:38:07.578Z,24.00
2019-06-20T08:40:42.964Z,23.90
2019-06-20T08:43:11.392Z,23.90
2019-06-20T08:45:40.038Z,24.00
2019-06-20T08:48:08.556Z,24.10
2019-06-20T08:50:37.031Z,24.20
2019-06-20T08:53:05.927Z,24.40
2019-06-20T08:55:34.852Z,24.40
2019-06-20T08:58:03.505Z,24.50
2019-06-20T09:00:32.437Z,24.60
2019-06-20T09:05:30.715Z,24.80
2019-06-20T09:10:40.649Z,24.80
2019-06-20T09:13:10.379Z,24.90
2019-06-20T09:15:38.794Z,25.10
2019-06-20T09:18:07.386Z,25.10
2019-06-20T09:20:36.022Z,25.20
2019-06-20T09:23:04.891Z,25.30
2019-06-20T09:25:33.334Z,25.40
2019-06-20T09:28:02.623Z,25.50
2019-06-20T09:30:31.168Z,25.70
2019-06-20T09:33:00.774Z,25.70
2019-06-20T09:35:29.185Z,25.70
2019-06-20T09:37:57.612Z,25.80
2019-06-20T09:40:26.059Z,25.90
2019-06-20T09:42:54.531Z,25.80
2019-06-20T09:45:23.950Z,25.70
2019-06-20T09:47:53.522Z,25.70
2019-06-20T09:50:22.132Z,25.70
2019-06-20T09:52:51.579Z,25.70
2019-06-20T09:55:20.636Z,25.70
2019-06-20T09:57:50.293Z,25.70
2019-06-20T10:00:21.025Z,25.70
2019-06-20T10:02:50.671Z,25.70
2019-06-20T10:05:20.092Z,25.80
2019-06-20T10:07:49.004Z,25.60
2019-06-20T10:10:18.564Z,25.70
2019-06-20T10:12:47.976Z,25.70
2019-06-20T10:15:28.076Z,25.80
2019-06-20T10:17:56.518Z,25.80
2019-06-20T10:20:24.989Z,25.80
2019-06-20T10:22:54.195Z,25.80
2019-06-20T10:25:22.625Z,25.90
2019-06-20T10:27:51.401Z,26.10
2019-06-20T10:30:21.316Z,26.50
2019-06-20T10:32:50.988Z,26.70
2019-06-20T10:35:19.616Z,26.80
2019-06-20T10:37:48.505Z,26.80
2019-06-20T10:40:18.685Z,26.60
2019-06-20T10:42:48.116Z,26.50
2019-06-20T10:45:17.716Z,26.40
2019-06-20T10:47:47.271Z,26.40
2019-06-20T10:50:16.215Z,26.40
2019-06-20T10:52:45.267Z,26.50
2019-06-20T10:55:13.822Z,26.50
2019-06-20T10:57:42.930Z,26.60
2019-06-20T11:00:26.813Z,26.60
2019-06-20T11:02:44.967Z,26.80
2019-06-20T11:05:13.473Z,26.90
2019-06-20T11:07:42.510Z,27.10
2019-06-20T11:10:14.311Z,27.10
2019-06-20T11:12:48.134Z,27.20
2019-06-20T11:15:12.869Z,27.10
2019-06-20T11:17:41.973Z,27.00
2019-06-20T11:20:10.843Z,26.90
2019-06-20T11:22:39.881Z,27.10
2019-06-20T11:25:09.938Z,27.10
2019-06-20T11:27:38.755Z,27.10
2019-06-20T11:30:13.383Z,27.20
2019-06-20T11:32:43.449Z,27.30
2019-06-20T11:35:12.038Z,27.40
2019-06-20T11:37:40.482Z,27.30
2019-06-20T11:40:08.922Z,27.20
2019-06-20T11:42:37.805Z,27.00
2019-06-20T11:45:06.720Z,26.90
2019-06-20T11:47:36.548Z,26.80
2019-06-20T11:50:08.086Z,26.70
2019-06-20T11:52:41.067Z,26.60
2019-06-20T11:55:07.135Z,26.50
2019-06-20T11:57:35.561Z,26.40
2019-06-20T12:00:06.268Z,26.30
2019-06-20T12:02:34.681Z,26.20
2019-06-20T12:05:04.269Z,26.20
2019-06-20T12:07:32.732Z,26.20
2019-06-20T12:10:01.224Z,26.20
2019-06-20T12:12:29.673Z,26.20
2019-06-20T12:14:58.129Z,26.20
2019-06-20T12:17:26.561Z,26.10
2019-06-20T12:19:54.970Z,26.00
2019-06-20T12:22:23.436Z,25.90
2019-06-20T12:24:52.212Z,25.70
2019-06-20T12:27:20.647Z,25.60
2019-06-20T12:29:49.335Z,25.70
2019-06-20T12:32:21.125Z,25.60
2019-06-20T12:34:50.119Z,25.70
2019-06-20T12:37:18.530Z,25.80
2019-06-20T12:39:46.955Z,25.90
2019-06-20T12:42:15.385Z,26.30
2019-06-20T12:44:44.253Z,26.50
2019-06-20T12:47:12.654Z,26.60
2019-06-20T12:49:41.773Z,26.60
2019-06-20T12:52:10.333Z,26.50
2019-06-20T12:54:39.877Z,26.60
2019-06-20T12:57:08.834Z,26.60
2019-06-20T12:59:38.066Z,26.50
2019-06-20T13:02:07.560Z,26.60
2019-06-20T13:04:38.206Z,26.50
2019-06-20T13:07:06.093Z,26.50
2019-06-20T13:09:34.510Z,26.60
2019-06-20T13:12:02.952Z,26.80
2019-06-20T13:14:31.371Z,27.10
2019-06-20T13:16:59.823Z,27.00
2019-06-20T13:19:28.265Z,26.80
2019-06-20T13:21:56.694Z,26.60
2019-06-20T13:24:25.152Z,26.40
2019-06-20T13:26:53.801Z,26.20
2019-06-20T13:29:22.296Z,26.00
2019-06-20T13:32:01.966Z,25.90
2019-06-20T13:34:20.817Z,25.80
2019-06-20T13:36:49.242Z,25.40
2019-06-20T13:39:17.660Z,25.20
2019-06-20T13:41:46.193Z,25.10
2019-06-20T13:44:15.971Z,24.90
2019-06-20T13:46:46.454Z,24.90
2019-06-20T13:49:15.036Z,24.80
2019-06-20T13:51:47.618Z,24.70
2019-06-20T13:54:16.188Z,24.60
2019-06-20T13:56:45.375Z,24.60
2019-06-20T13:59:13.882Z,24.50
2019-06-20T14:01:46.106Z,24.40
2019-06-20T14:04:15.105Z,24.30
2019-06-20T14:06:43.884Z,24.20
2019-06-20T14:09:13.560Z,24.10
2019-06-20T14:11:43.216Z,24.10
2019-06-20T14:14:12.187Z,24.20
2019-06-20T14:16:44.719Z,24.10
2019-06-20T14:19:13.322Z,24.10
2019-06-20T14:21:42.487Z,24.00
2019-06-20T14:24:11.909Z,24.00
2019-06-20T14:26:43.320Z,24.00
2019-06-20T14:29:10.419Z,24.00
2019-06-20T14:31:38.844Z,23.90
2019-06-20T14:34:07.304Z,23.90
2019-06-20T14:36:35.803Z,23.80
2019-06-20T14:39:06.440Z,23.90
2019-06-20T14:41:34.888Z,23.90
2019-06-20T14:44:03.329Z,24.10
2019-06-20T14:46:31.720Z,24.10
2019-06-20T14:49:00.178Z,24.00
2019-06-20T14:51:28.598Z,23.70
2019-06-20T14:53:57.073Z,23.40
2019-06-20T14:56:25.540Z,23.10
2019-06-20T14:58:55.430Z,22.70
2019-06-20T15:01:24.445Z,22.40
2019-06-20T15:03:53.835Z,21.90
2019-06-20T15:06:22.427Z,21.60
2019-06-20T15:08:53.570Z,21.40
2019-06-20T15:11:20.954Z,21.40
2019-06-20T15:13:49.390Z,21.30
2019-06-20T15:16:17.832Z,21.20
2019-06-20T15:18:48.320Z,21.10
2019-06-20T15:21:16.315Z,21.00
2019-06-20T15:23:47.253Z,20.90
2019-06-20T15:26:14.939Z,20.60
2019-06-20T15:28:43.355Z,20.50
2019-06-20T15:31:11.777Z,20.30
2019-06-20T15:33:40.228Z,20.20
2019-06-20T15:36:08.645Z,20.30
2019-06-20T15:38:37.131Z,20.30
2019-06-20T15:41:05.578Z,20.20
2019-06-20T15:43:34.000Z,20.10
2019-06-20T15:46:02.424Z,20.10
2019-06-20T15:48:30.877Z,20.10
2019-06-20T15:50:59.310Z,19.90
2019-06-20T15:53:27.867Z,19.80
2019-06-20T15:55:56.467Z,19.80
2019-06-20T15:58:24.924Z,19.90
2019-06-20T16:00:53.323Z,19.90
2019-06-20T16:03:21.753Z,19.90
2019-06-20T16:05:50.163Z,19.90
2019-06-20T16:08:18.642Z,19.90
2019-06-20T16:10:47.100Z,20.00
2019-06-20T16:13:15.511Z,20.00
2019-06-20T16:15:43.922Z,20.00
2019-06-20T16:18:12.541Z,19.90
2019-06-20T16:20:42.066Z,19.80
2019-06-20T16:23:10.483Z,19.80
2019-06-20T16:25:38.920Z,19.70
2019-06-20T16:28:07.347Z,19.70
2019-06-20T16:30:35.772Z,19.80
2019-06-20T16:33:04.212Z,19.80
2019-06-20T16:35:32.659Z,19.70
2019-06-20T16:38:01.064Z,19.80
2019-06-20T16:40:41.880Z,19.80
2019-06-20T16:43:10.304Z,19.80
2019-06-20T16:45:38.723Z,19.60
2019-06-20T16:48:07.181Z,19.70
2019-06-20T16:50:35.620Z,19.60
2019-06-20T16:53:04.146Z,19.60
2019-06-20T16:55:32.572Z,19.60
2019-06-20T16:58:00.955Z,19.50
2019-06-20T17:00:29.378Z,19.50
2019-06-20T17:02:57.827Z,19.40
2019-06-20T17:05:26.277Z,19.50
2019-06-20T17:07:55.035Z,19.30
2019-06-20T17:10:23.484Z,19.30
2019-06-20T17:12:51.900Z,19.20
2019-06-20T17:15:20.585Z,19.00
2019-06-20T17:17:49.067Z,18.80
2019-06-20T17:20:19.123Z,18.70
2019-06-20T17:22:47.550Z,18.60
2019-06-20T17:25:15.992Z,18.60
2019-06-20T17:27:44.412Z,18.60
2019-06-20T17:30:13.977Z,18.70
2019-06-20T17:32:42.405Z,18.80
2019-06-20T17:35:10.826Z,18.90
2019-06-20T17:37:39.266Z,18.90
2019-06-20T17:40:09.805Z,18.90
2019-06-20T17:42:38.389Z,18.90
2019-06-20T17:45:07.179Z,18.80
2019-06-20T17:47:35.628Z,18.80
2019-06-20T17:50:06.240Z,18.80
2019-06-20T17:52:34.677Z,18.80
2019-06-20T17:55:03.499Z,18.80
2019-06-20T17:57:31.907Z,18.70
2019-06-20T18:00:00.342Z,18.80
2019-06-20T18:02:28.802Z,18.80
2019-06-20T18:04:57.215Z,18.90
2019-06-20T18:07:25.626Z,18.90
2019-06-20T18:09:54.073Z,18.80
2019-06-20T18:12:22.664Z,18.80
2019-06-20T18:14:51.092Z,18.70
2019-06-20T18:17:19.526Z,18.70
2019-06-20T18:19:47.949Z,18.60
2019-06-20T18:22:16.384Z,18.60
2019-06-20T18:24:44.802Z,18.60
2019-06-20T18:27:13.222Z,18.70
2019-06-20T18:29:41.636Z,18.70
2019-06-20T18:32:10.094Z,18.70
2019-06-20T18:34:38.519Z,18.80
2019-06-20T18:37:06.936Z,18.80
2019-06-20T18:39:35.384Z,18.80
2019-06-20T18:42:03.824Z,18.70
2019-06-20T18:44:32.229Z,18.70
2019-06-20T18:47:00.715Z,18.70
2019-06-20T18:49:29.121Z,18.70
2019-06-20T18:51:57.539Z,18.80
2019-06-20T18:54:25.988Z,18.80
2019-06-20T18:56:54.656Z,18.80
2019-06-20T18:59:23.070Z,18.80
2019-06-20T19:01:51.530Z,18.90
2019-06-20T19:04:19.944Z,18.80
2019-06-20T19:06:48.439Z,18.70
2019-06-20T19:09:16.883Z,18.70
2019-06-20T19:11:45.297Z,18.60
2019-06-20T19:14:13.711Z,18.60
2019-06-20T19:16:42.181Z,18.70
2019-06-20T19:19:10.608Z,18.60
2019-06-20T19:21:39.033Z,18.60
2019-06-20T19:24:07.491Z,18.60
2019-06-20T19:26:36.059Z,18.60
2019-06-20T19:29:04.484Z,18.60
2019-06-20T19:31:32.948Z,18.50
2019-06-20T19:34:01.363Z,18.50
2019-06-20T19:36:29.798Z,18.50
2019-06-20T19:38:58.250Z,18.40
2019-06-20T19:41:27.003Z,18.40
2019-06-20T19:43:55.404Z,18.40
2019-06-20T19:46:23.878Z,18.30
2019-06-20T19:48:52.283Z,18.20
2019-06-20T19:51:20.702Z,18.20
2019-06-20T19:53:49.151Z,18.20
2019-06-20T19:56:17.570Z,18.20
2019-06-20T19:58:46.001Z,18.20
2019-06-20T20:01:14.456Z,18.00
2019-06-20T20:03:42.867Z,17.90
2019-06-20T20:06:11.304Z,17.70
2019-06-20T20:08:39.760Z,17.70
2019-06-20T20:11:08.180Z,17.70
2019-06-20T20:13:36.614Z,17.70
2019-06-20T20:16:05.060Z,17.60
2019-06-20T20:18:33.507Z,17.60
2019-06-20T20:21:01.912Z,17.60
2019-06-20T20:23:30.356Z,17.60
2019-06-20T20:25:58.784Z,17.60
2019-06-20T20:28:27.197Z,17.60
2019-06-20T20:30:55.628Z,17.50
2019-06-20T20:33:24.049Z,17.50
2019-06-20T20:35:52.460Z,17.50
2019-06-20T20:38:20.899Z,17.50
2019-06-20T20:40:49.324Z,17.40
2019-06-20T20:43:17.749Z,17.50
2019-06-20T20:45:46.190Z,17.60
2019-06-20T20:48:14.601Z,17.40
2019-06-20T20:50:43.287Z,17.20
2019-06-20T20:53:11.741Z,17.10
2019-06-20T20:55:40.162Z,17.10
2019-06-20T20:58:08.585Z,17.10
2019-06-20T21:00:52.272Z,17.00
2019-06-20T21:03:20.671Z,17.00
2019-06-20T21:05:51.624Z,17.10
2019-06-20T21:08:19.176Z,17.20
2019-06-20T21:10:47.603Z,17.00
2019-06-20T21:13:16.020Z,17.00
2019-06-20T21:15:44.497Z,17.00
2019-06-20T21:18:12.906Z,16.90
2019-06-20T21:20:41.344Z,16.90
2019-06-20T21:23:09.788Z,17.00
2019-06-20T21:25:38.207Z,16.90
2019-06-20T21:28:06.628Z,16.90
2019-06-20T21:30:35.075Z,17.00
2019-06-20T21:33:03.549Z,17.00
2019-06-20T21:35:31.940Z,17.00
2019-06-20T21:38:00.388Z,16.90
2019-06-20T21:40:28.825Z,16.90
2019-06-20T21:42:57.241Z,16.90
2019-06-20T21:45:25.680Z,17.00
2019-06-20T21:47:54.097Z,17.00
2019-06-20T21:50:22.519Z,16.90
2019-06-20T21:52:50.953Z,16.90
2019-06-20T21:55:19.376Z,16.90
2019-06-20T21:57:47.801Z,16.90
2019-06-20T22:00:30.298Z,17.00
2019-06-20T22:02:58.714Z,17.00
2019-06-20T22:05:27.149Z,17.00
2019-06-20T22:07:55.614Z,17.00
2019-06-20T22:10:24.167Z,17.00
2019-06-20T22:12:52.617Z,17.00
2019-06-20T22:15:21.158Z,17.00
2019-06-20T22:17:49.580Z,16.90
2019-06-20T22:20:17.992Z,16.90
2019-06-20T22:22:46.703Z,16.90
2019-06-20T22:25:15.126Z,16.90
2019-06-20T22:27:43.540Z,16.90
2019-06-20T22:30:13.736Z,16.90
2019-06-20T22:32:42.175Z,16.80
2019-06-20T22:35:10.591Z,16.80
2019-06-20T22:37:39.142Z,16.80
2019-06-20T22:40:10.611Z,16.80
2019-06-20T22:42:39.024Z,16.80
2019-06-20T22:45:09.180Z,16.80
2019-06-20T22:47:37.664Z,16.80
2019-06-20T22:50:07.025Z,16.80
2019-06-20T22:52:35.468Z,16.70
2019-06-20T22:55:05.785Z,16.80
2019-06-20T22:57:34.199Z,16.80
2019-06-20T23:00:03.420Z,16.80
2019-06-20T23:02:31.846Z,16.70
2019-06-20T23:05:00.269Z,16.70
2019-06-20T23:07:28.713Z,16.70
2019-06-20T23:10:09.829Z,16.70
2019-06-20T23:12:27.191Z,16.70
2019-06-20T23:14:55.633Z,16.70
2019-06-20T23:17:24.049Z,16.80
2019-06-20T23:19:52.484Z,16.80
2019-06-20T23:22:20.932Z,16.90
2019-06-20T23:24:49.368Z,16.90
2019-06-20T23:27:17.768Z,16.90
2019-06-20T23:29:46.216Z,16.80
2019-06-20T23:32:14.635Z,16.80
2019-06-20T23:34:43.060Z,16.70
2019-06-20T23:37:13.192Z,16.60
2019-06-20T23:39:41.911Z,16.60
2019-06-20T23:42:10.323Z,16.60
2019-06-20T23:44:38.795Z,16.60
2019-06-20T23:47:07.198Z,16.60
2019-06-20T23:49:35.624Z,16.60
2019-06-20T23:52:05.727Z,16.50
2019-06-20T23:54:34.234Z,16.60
2019-06-20T23:57:02.655Z,16.60
2019-06-20T23:59:31.103Z,16.60
